Melody — 3FBS7 — position and weather

sailwx.info

Track history (hours):
 
Tides and Currents Weather Stations Pressure Air Temp Water Temp Dewpoint Dewpoint Depression Visibility Wind Speed Wind Dir Waves Ship Positions

Melody

Operator: Mediterranean Shipping Company

Last reported at 2017-Oct-14 15:33 UTC. Time now 2017-Oct-18 09:13 UTC.
Position N 29°22' W 094°48'.

Length 225 m; draft 11.4 m.

Type: Tanker. MMSI: 371669000.

Date/timePositionNaut miles runAvg speedWind from/ knotsBaromVisibWave heightAir tempDewpointWater temp
2017-Oct-14 15:33N 29°22' W 094°48'111.6
2017-Oct-14 15:30N 29°23' W 094°49'612.0
2017-Oct-14 15:00N 29°28' W 094°51'611.6
2017-Oct-14 14:30N 29°33' W 094°55'511.0
2017-Oct-14 14:00N 29°38' W 094°58'510.0
2017-Oct-14 13:31N 29°42' W 095°01'4 8.0
2017-Oct-14 13:00N 29°45' W 095°04'3 6.0
2017-Oct-14 12:30N 29°44' W 095°07'0 0.0
2017-Oct-12 16:27N 29°44' W 095°07'0 1.1
2017-Oct-12 16:00N 29°44' W 095°07'3 5.2
2017-Oct-12 15:30N 29°46' W 095°04'4 6.8
2017-Oct-12 14:55N 29°43' W 095°01'4 9.3
2017-Oct-12 14:31N 29°40' W 094°58'612.1
2017-Oct-12 14:00N 29°34' W 094°56'612.5
2017-Oct-12 13:31N 29°29' W 094°52'712.7
2017-Oct-12 12:57N 29°23' W 094°48'  
Track history (hours):
 
Tides and Currents Weather Stations Pressure Air Temp Water Temp Dewpoint Dewpoint Depression Visibility Wind Speed Wind Dir Waves Ship Positions

Melody

Operator: Mediterranean Shipping Company

Last reported at 2017-Oct-14 15:33 UTC. Time now 2017-Oct-18 09:13 UTC.
Position N 29°22' W 094°48'.

Length 225 m; draft 11.4 m.

Type: Tanker. MMSI: 371669000.

Date/timePositionNaut miles runAvg speedWind from/ knotsBaromVisibWave heightAir tempDewpointWater temp
2017-Oct-14 15:33N 29°22' W 094°48'111.6
2017-Oct-14 15:30N 29°23' W 094°49'612.0
2017-Oct-14 15:00N 29°28' W 094°51'611.6
2017-Oct-14 14:30N 29°33' W 094°55'511.0
2017-Oct-14 14:00N 29°38' W 094°58'510.0
2017-Oct-14 13:31N 29°42' W 095°01'4 8.0
2017-Oct-14 13:00N 29°45' W 095°04'3 6.0
2017-Oct-14 12:30N 29°44' W 095°07'0 0.0
2017-Oct-12 16:27N 29°44' W 095°07'0 1.1
2017-Oct-12 16:00N 29°44' W 095°07'3 5.2
2017-Oct-12 15:30N 29°46' W 095°04'4 6.8
2017-Oct-12 14:55N 29°43' W 095°01'4 9.3
2017-Oct-12 14:31N 29°40' W 094°58'612.1
2017-Oct-12 14:00N 29°34' W 094°56'612.5
2017-Oct-12 13:31N 29°29' W 094°52'712.7
2017-Oct-12 12:57N 29°23' W 094°48'  

Dump ship's entire track history